sensor_id;sensor_type;location;lat;lon;timestamp;P1;durP1;ratioP1;P2;durP2;ratioP2
26191;SDS011;13935;55.672;37.764;2022-10-22T00:00:59;12.18;;;6.38;;
26191;SDS011;13935;55.672;37.764;2022-10-22T00:02:08;10.55;;;6.03;;
26191;SDS011;13935;55.672;37.764;2022-10-22T00:03:53;13.65;;;6.35;;
26191;SDS011;13935;55.672;37.764;2022-10-22T00:04:59;12.63;;;6.45;;
26191;SDS011;13935;55.672;37.764;2022-10-22T00:06:13;10.02;;;6.00;;
26191;SDS011;13935;55.672;37.764;2022-10-22T00:07:36;12.93;;;6.22;;
26191;SDS011;13935;55.672;37.764;2022-10-22T00:08:47;11.25;;;6.10;;
26191;SDS011;13935;55.672;37.764;2022-10-22T00:09:59;10.10;;;5.80;;
26191;SDS011;13935;55.672;37.764;2022-10-22T00:11:09;12.05;;;6.13;;
26191;SDS011;13935;55.672;37.764;2022-10-22T00:12:19;11.57;;;6.97;;
26191;SDS011;13935;55.672;37.764;2022-10-22T00:13:27;11.02;;;6.38;;
26191;SDS011;13935;55.672;37.764;2022-10-22T00:14:36;12.43;;;6.57;;
26191;SDS011;13935;55.672;37.764;2022-10-22T00:16:14;10.43;;;6.18;;
26191;SDS011;13935;55.672;37.764;2022-10-22T00:17:30;9.80;;;5.63;;
26191;SDS011;13935;55.672;37.764;2022-10-22T00:18:40;10.55;;;6.10;;
26191;SDS011;13935;55.672;37.764;2022-10-22T00:19:59;9.38;;;5.88;;
26191;SDS011;13935;55.672;37.764;2022-10-22T00:21:04;9.75;;;6.03;;
26191;SDS011;13935;55.672;37.764;2022-10-22T00:22:18;13.48;;;6.60;;
26191;SDS011;13935;55.672;37.764;2022-10-22T00:23:23;10.60;;;5.90;;
26191;SDS011;13935;55.672;37.764;2022-10-22T00:24:33;14.38;;;6.55;;
26191;SDS011;13935;55.672;37.764;2022-10-22T00:26:05;10.35;;;5.85;;
26191;SDS011;13935;55.672;37.764;2022-10-22T00:27:15;9.85;;;5.57;;
26191;SDS011;13935;55.672;37.764;2022-10-22T00:28:22;10.73;;;6.55;;
26191;SDS011;13935;55.672;37.764;2022-10-22T00:29:29;9.25;;;5.78;;
26191;SDS011;13935;55.672;37.764;2022-10-22T00:30:39;19.55;;;6.43;;
26191;SDS011;13935;55.672;37.764;2022-10-22T00:31:59;10.50;;;6.00;;
26191;SDS011;13935;55.672;37.764;2022-10-22T00:33:27;10.45;;;5.82;;
26191;SDS011;13935;55.672;37.764;2022-10-22T00:34:49;11.00;;;5.88;;
26191;SDS011;13935;55.672;37.764;2022-10-22T00:36:04;13.02;;;6.30;;
26191;SDS011;13935;55.672;37.764;2022-10-22T00:37:09;8.23;;;4.40;;
26191;SDS011;13935;55.672;37.764;2022-10-22T00:38:15;7.45;;;4.00;;
26191;SDS011;13935;55.672;37.764;2022-10-22T00:39:25;7.15;;;3.80;;
26191;SDS011;13935;55.672;37.764;2022-10-22T00:40:31;7.47;;;3.58;;
26191;SDS011;13935;55.672;37.764;2022-10-22T00:41:55;7.40;;;3.72;;
26191;SDS011;13935;55.672;37.764;2022-10-22T00:43:03;7.22;;;4.05;;
26191;SDS011;13935;55.672;37.764;2022-10-22T00:46:19;8.52;;;4.88;;
26191;SDS011;13935;55.672;37.764;2022-10-22T00:48:03;12.95;;;5.32;;
26191;SDS011;13935;55.672;37.764;2022-10-22T00:49:35;9.40;;;5.25;;
26191;SDS011;13935;55.672;37.764;2022-10-22T00:51:24;8.90;;;5.43;;
26191;SDS011;13935;55.672;37.764;2022-10-22T00:52:53;9.45;;;5.70;;
26191;SDS011;13935;55.672;37.764;2022-10-22T00:54:05;11.70;;;6.55;;
26191;SDS011;13935;55.672;37.764;2022-10-22T00:55:20;11.75;;;6.40;;
26191;SDS011;13935;55.672;37.764;2022-10-22T00:56:39;11.57;;;7.18;;
26191;SDS011;13935;55.672;37.764;2022-10-22T00:57:47;12.32;;;7.28;;
26191;SDS011;13935;55.672;37.764;2022-10-22T00:58:59;12.00;;;6.90;;
26191;SDS011;13935;55.672;37.764;2022-10-22T01:00:53;12.85;;;6.57;;
26191;SDS011;13935;55.672;37.764;2022-10-22T01:02:01;12.32;;;6.18;;
26191;SDS011;13935;55.672;37.764;2022-10-22T01:03:19;9.88;;;6.20;;
26191;SDS011;13935;55.672;37.764;2022-10-22T01:05:32;12.65;;;5.78;;
26191;SDS011;13935;55.672;37.764;2022-10-22T01:06:46;11.80;;;6.35;;
26191;SDS011;13935;55.672;37.764;2022-10-22T01:07:53;9.85;;;6.00;;
26191;SDS011;13935;55.672;37.764;2022-10-22T01:10:36;12.32;;;6.28;;
26191;SDS011;13935;55.672;37.764;2022-10-22T01:13:38;11.25;;;6.75;;
26191;SDS011;13935;55.672;37.764;2022-10-22T01:22:26;12.02;;;6.22;;
26191;SDS011;13935;55.672;37.764;2022-10-22T01:24:05;14.48;;;6.05;;
26191;SDS011;13935;55.672;37.764;2022-10-22T01:26:27;10.85;;;5.90;;
26191;SDS011;13935;55.672;37.764;2022-10-22T01:27:45;12.88;;;7.22;;
26191;SDS011;13935;55.672;37.764;2022-10-22T01:29:13;16.30;;;7.85;;
26191;SDS011;13935;55.672;37.764;2022-10-22T01:30:29;15.27;;;7.80;;
26191;SDS011;13935;55.672;37.764;2022-10-22T01:31:37;12.65;;;7.47;;
26191;SDS011;13935;55.672;37.764;2022-10-22T01:32:51;12.48;;;7.25;;
26191;SDS011;13935;55.672;37.764;2022-10-22T01:34:38;11.95;;;7.20;;
26191;SDS011;13935;55.672;37.764;2022-10-22T01:35:59;11.88;;;7.55;;
26191;SDS011;13935;55.672;37.764;2022-10-22T01:37:09;14.20;;;8.18;;
26191;SDS011;13935;55.672;37.764;2022-10-22T01:38:19;16.52;;;7.95;;
26191;SDS011;13935;55.672;37.764;2022-10-22T01:39:31;14.68;;;8.48;;
26191;SDS011;13935;55.672;37.764;2022-10-22T01:40:38;13.77;;;8.40;;
26191;SDS011;13935;55.672;37.764;2022-10-22T01:41:47;15.48;;;8.15;;
26191;SDS011;13935;55.672;37.764;2022-10-22T01:42:56;14.35;;;8.48;;
26191;SDS011;13935;55.672;37.764;2022-10-22T01:47:36;11.95;;;7.95;;
26191;SDS011;13935;55.672;37.764;2022-10-22T01:51:48;14.38;;;8.40;;
26191;SDS011;13935;55.672;37.764;2022-10-22T01:56:00;12.63;;;8.10;;
26191;SDS011;13935;55.672;37.764;2022-10-22T01:57:35;14.85;;;8.57;;
26191;SDS011;13935;55.672;37.764;2022-10-22T02:00:16;12.77;;;8.00;;
26191;SDS011;13935;55.672;37.764;2022-10-22T02:01:46;15.65;;;9.27;;
26191;SDS011;13935;55.672;37.764;2022-10-22T02:03:18;14.88;;;7.78;;
26191;SDS011;13935;55.672;37.764;2022-10-22T02:06:21;16.13;;;8.35;;
26191;SDS011;13935;55.672;37.764;2022-10-22T02:07:51;15.18;;;8.48;;
26191;SDS011;13935;55.672;37.764;2022-10-22T02:09:34;16.40;;;8.38;;
26191;SDS011;13935;55.672;37.764;2022-10-22T02:10:39;14.48;;;8.30;;
26191;SDS011;13935;55.672;37.764;2022-10-22T02:11:53;12.88;;;8.38;;
26191;SDS011;13935;55.672;37.764;2022-10-22T02:13:07;13.00;;;8.55;;
26191;SDS011;13935;55.672;37.764;2022-10-22T02:14:23;15.15;;;8.75;;
26191;SDS011;13935;55.672;37.764;2022-10-22T02:15:32;14.60;;;8.75;;
26191;SDS011;13935;55.672;37.764;2022-10-22T02:16:46;15.93;;;8.82;;
26191;SDS011;13935;55.672;37.764;2022-10-22T02:17:59;15.10;;;7.93;;
26191;SDS011;13935;55.672;37.764;2022-10-22T02:19:26;13.38;;;8.13;;
26191;SDS011;13935;55.672;37.764;2022-10-22T02:20:52;13.95;;;8.30;;
26191;SDS011;13935;55.672;37.764;2022-10-22T02:22:15;14.20;;;8.60;;
26191;SDS011;13935;55.672;37.764;2022-10-22T02:23:30;13.30;;;8.38;;
26191;SDS011;13935;55.672;37.764;2022-10-22T02:25:05;15.43;;;8.70;;
26191;SDS011;13935;55.672;37.764;2022-10-22T02:26:30;15.27;;;9.05;;
26191;SDS011;13935;55.672;37.764;2022-10-22T02:27:45;15.40;;;9.10;;
26191;SDS011;13935;55.672;37.764;2022-10-22T02:29:29;18.83;;;9.43;;
26191;SDS011;13935;55.672;37.764;2022-10-22T02:30:56;15.05;;;9.88;;
26191;SDS011;13935;55.672;37.764;2022-10-22T02:32:11;18.42;;;9.68;;
26191;SDS011;13935;55.672;37.764;2022-10-22T02:33:44;14.20;;;9.68;;
26191;SDS011;13935;55.672;37.764;2022-10-22T02:35:13;15.32;;;9.63;;
26191;SDS011;13935;55.672;37.764;2022-10-22T02:36:29;16.35;;;10.55;;
26191;SDS011;13935;55.672;37.764;2022-10-22T02:38:08;18.40;;;9.88;;
26191;SDS011;13935;55.672;37.764;2022-10-22T02:39:51;15.68;;;9.85;;
26191;SDS011;13935;55.672;37.764;2022-10-22T02:41:01;16.20;;;10.18;;
26191;SDS011;13935;55.672;37.764;2022-10-22T02:42:07;15.55;;;10.15;;
26191;SDS011;13935;55.672;37.764;2022-10-22T02:43:14;17.10;;;9.93;;
26191;SDS011;13935;55.672;37.764;2022-10-22T02:44:22;15.38;;;9.77;;
26191;SDS011;13935;55.672;37.764;2022-10-22T02:45:40;16.05;;;10.25;;
26191;SDS011;13935;55.672;37.764;2022-10-22T02:47:00;16.35;;;9.90;;
26191;SDS011;13935;55.672;37.764;2022-10-22T02:48:10;18.27;;;10.50;;
26191;SDS011;13935;55.672;37.764;2022-10-22T02:49:25;18.50;;;11.20;;
26191;SDS011;13935;55.672;37.764;2022-10-22T02:52:05;16.75;;;9.75;;
26191;SDS011;13935;55.672;37.764;2022-10-22T02:53:28;17.15;;;10.68;;
26191;SDS011;13935;55.672;37.764;2022-10-22T02:54:42;21.70;;;11.65;;
26191;SDS011;13935;55.672;37.764;2022-10-22T02:55:56;19.10;;;11.07;;
26191;SDS011;13935;55.672;37.764;2022-10-22T02:57:00;19.00;;;11.40;;
26191;SDS011;13935;55.672;37.764;2022-10-22T02:58:12;17.05;;;11.48;;
26191;SDS011;13935;55.672;37.764;2022-10-22T02:59:24;19.65;;;12.05;;
26191;SDS011;13935;55.672;37.764;2022-10-22T03:00:29;19.33;;;11.85;;
26191;SDS011;13935;55.672;37.764;2022-10-22T03:01:33;20.40;;;12.00;;
26191;SDS011;13935;55.672;37.764;2022-10-22T03:02:41;18.13;;;11.70;;
26191;SDS011;13935;55.672;37.764;2022-10-22T03:03:47;23.63;;;12.63;;
26191;SDS011;13935;55.672;37.764;2022-10-22T03:04:53;19.55;;;11.23;;
26191;SDS011;13935;55.672;37.764;2022-10-22T03:06:05;19.92;;;11.75;;
26191;SDS011;13935;55.672;37.764;2022-10-22T03:07:25;19.25;;;12.07;;
26191;SDS011;13935;55.672;37.764;2022-10-22T03:08:29;18.33;;;11.55;;
26191;SDS011;13935;55.672;37.764;2022-10-22T03:09:37;18.90;;;12.00;;
26191;SDS011;13935;55.672;37.764;2022-10-22T03:10:56;17.35;;;11.48;;
26191;SDS011;13935;55.672;37.764;2022-10-22T03:12:13;18.88;;;11.75;;
26191;SDS011;13935;55.672;37.764;2022-10-22T03:13:22;20.70;;;10.52;;
26191;SDS011;13935;55.672;37.764;2022-10-22T03:14:35;18.35;;;11.75;;
26191;SDS011;13935;55.672;37.764;2022-10-22T03:16:10;19.42;;;12.43;;
26191;SDS011;13935;55.672;37.764;2022-10-22T03:17:30;20.08;;;12.63;;
26191;SDS011;13935;55.672;37.764;2022-10-22T03:18:39;18.25;;;11.23;;
26191;SDS011;13935;55.672;37.764;2022-10-22T03:20:05;19.20;;;11.32;;
26191;SDS011;13935;55.672;37.764;2022-10-22T03:22:53;20.20;;;11.68;;
26191;SDS011;13935;55.672;37.764;2022-10-22T03:26:02;17.75;;;11.65;;
26191;SDS011;13935;55.672;37.764;2022-10-22T03:27:14;18.90;;;11.77;;
26191;SDS011;13935;55.672;37.764;2022-10-22T03:28:31;18.98;;;11.68;;
26191;SDS011;13935;55.672;37.764;2022-10-22T03:29:49;19.90;;;11.65;;
26191;SDS011;13935;55.672;37.764;2022-10-22T03:31:05;18.75;;;12.05;;
26191;SDS011;13935;55.672;37.764;2022-10-22T03:32:18;18.00;;;11.68;;
26191;SDS011;13935;55.672;37.764;2022-10-22T03:33:41;19.95;;;10.88;;
26191;SDS011;13935;55.672;37.764;2022-10-22T03:34:46;18.95;;;11.55;;
26191;SDS011;13935;55.672;37.764;2022-10-22T03:35:57;18.13;;;10.93;;
26191;SDS011;13935;55.672;37.764;2022-10-22T03:37:04;17.83;;;12.00;;
26191;SDS011;13935;55.672;37.764;2022-10-22T03:38:15;19.13;;;11.30;;
26191;SDS011;13935;55.672;37.764;2022-10-22T03:39:21;19.48;;;11.65;;
26191;SDS011;13935;55.672;37.764;2022-10-22T03:40:29;19.30;;;12.60;;
26191;SDS011;13935;55.672;37.764;2022-10-22T03:41:33;17.35;;;10.93;;
26191;SDS011;13935;55.672;37.764;2022-10-22T03:42:51;18.65;;;11.55;;
26191;SDS011;13935;55.672;37.764;2022-10-22T03:43:54;18.50;;;11.02;;
26191;SDS011;13935;55.672;37.764;2022-10-22T03:45:02;17.48;;;11.00;;
26191;SDS011;13935;55.672;37.764;2022-10-22T03:46:09;16.80;;;10.95;;
26191;SDS011;13935;55.672;37.764;2022-10-22T03:47:38;18.17;;;11.07;;
26191;SDS011;13935;55.672;37.764;2022-10-22T03:49:02;17.25;;;10.15;;
26191;SDS011;13935;55.672;37.764;2022-10-22T03:50:05;19.20;;;11.60;;
26191;SDS011;13935;55.672;37.764;2022-10-22T03:51:13;16.88;;;10.48;;
26191;SDS011;13935;55.672;37.764;2022-10-22T03:52:38;17.13;;;10.77;;
26191;SDS011;13935;55.672;37.764;2022-10-22T03:53:56;18.75;;;11.18;;
26191;SDS011;13935;55.672;37.764;2022-10-22T03:55:07;19.02;;;11.90;;
26191;SDS011;13935;55.672;37.764;2022-10-22T03:56:12;19.77;;;12.05;;
26191;SDS011;13935;55.672;37.764;2022-10-22T03:57:22;17.38;;;11.25;;
26191;SDS011;13935;55.672;37.764;2022-10-22T03:58:28;16.85;;;11.15;;
26191;SDS011;13935;55.672;37.764;2022-10-22T03:59:52;17.67;;;10.98;;
26191;SDS011;13935;55.672;37.764;2022-10-22T04:02:22;18.13;;;10.27;;
26191;SDS011;13935;55.672;37.764;2022-10-22T04:03:41;18.52;;;10.98;;
26191;SDS011;13935;55.672;37.764;2022-10-22T04:04:45;19.10;;;11.77;;
26191;SDS011;13935;55.672;37.764;2022-10-22T04:05:50;20.65;;;12.48;;
26191;SDS011;13935;55.672;37.764;2022-10-22T04:07:02;19.75;;;12.23;;
26191;SDS011;13935;55.672;37.764;2022-10-22T04:08:13;21.08;;;11.27;;
26191;SDS011;13935;55.672;37.764;2022-10-22T04:09:24;19.67;;;11.98;;
26191;SDS011;13935;55.672;37.764;2022-10-22T04:10:54;21.20;;;12.55;;
26191;SDS011;13935;55.672;37.764;2022-10-22T04:11:58;18.60;;;11.90;;
26191;SDS011;13935;55.672;37.764;2022-10-22T04:13:29;20.17;;;11.82;;
26191;SDS011;13935;55.672;37.764;2022-10-22T04:14:38;20.83;;;11.65;;
26191;SDS011;13935;55.672;37.764;2022-10-22T04:15:53;18.90;;;10.93;;
26191;SDS011;13935;55.672;37.764;2022-10-22T04:17:05;17.98;;;11.35;;
26191;SDS011;13935;55.672;37.764;2022-10-22T04:18:12;17.08;;;10.40;;
26191;SDS011;13935;55.672;37.764;2022-10-22T04:19:15;17.60;;;11.40;;
26191;SDS011;13935;55.672;37.764;2022-10-22T04:20:26;19.13;;;11.95;;
26191;SDS011;13935;55.672;37.764;2022-10-22T04:21:30;20.52;;;12.57;;
26191;SDS011;13935;55.672;37.764;2022-10-22T04:22:34;16.50;;;11.73;;
26191;SDS011;13935;55.672;37.764;2022-10-22T04:23:50;18.85;;;12.00;;
26191;SDS011;13935;55.672;37.764;2022-10-22T04:24:56;19.25;;;12.13;;
26191;SDS011;13935;55.672;37.764;2022-10-22T04:26:06;19.42;;;12.40;;
26191;SDS011;13935;55.672;37.764;2022-10-22T04:27:12;19.10;;;12.30;;
26191;SDS011;13935;55.672;37.764;2022-10-22T04:28:17;21.17;;;12.73;;
26191;SDS011;13935;55.672;37.764;2022-10-22T04:29:27;19.08;;;12.20;;
26191;SDS011;13935;55.672;37.764;2022-10-22T04:31:10;19.63;;;12.23;;
26191;SDS011;13935;55.672;37.764;2022-10-22T04:32:18;27.73;;;13.25;;
26191;SDS011;13935;55.672;37.764;2022-10-22T04:33:24;30.40;;;14.35;;
26191;SDS011;13935;55.672;37.764;2022-10-22T04:34:31;23.80;;;13.70;;
26191;SDS011;13935;55.672;37.764;2022-10-22T04:35:36;22.77;;;12.43;;
26191;SDS011;13935;55.672;37.764;2022-10-22T04:36:46;19.30;;;12.40;;
26191;SDS011;13935;55.672;37.764;2022-10-22T04:37:54;20.38;;;12.10;;
26191;SDS011;13935;55.672;37.764;2022-10-22T04:39:05;20.70;;;11.90;;
26191;SDS011;13935;55.672;37.764;2022-10-22T04:40:25;20.60;;;12.52;;
26191;SDS011;13935;55.672;37.764;2022-10-22T04:41:30;20.02;;;12.02;;
26191;SDS011;13935;55.672;37.764;2022-10-22T04:42:39;18.83;;;11.80;;
26191;SDS011;13935;55.672;37.764;2022-10-22T04:43:47;19.80;;;12.40;;
26191;SDS011;13935;55.672;37.764;2022-10-22T04:44:51;22.33;;;12.30;;
26191;SDS011;13935;55.672;37.764;2022-10-22T04:45:58;19.52;;;12.55;;
26191;SDS011;13935;55.672;37.764;2022-10-22T04:47:21;19.55;;;12.80;;
26191;SDS011;13935;55.672;37.764;2022-10-22T04:48:29;23.13;;;12.93;;
26191;SDS011;13935;55.672;37.764;2022-10-22T04:49:34;22.65;;;12.07;;
26191;SDS011;13935;55.672;37.764;2022-10-22T04:50:46;20.23;;;12.65;;
26191;SDS011;13935;55.672;37.764;2022-10-22T04:51:52;21.65;;;12.57;;
26191;SDS011;13935;55.672;37.764;2022-10-22T04:52:59;20.42;;;11.82;;
26191;SDS011;13935;55.672;37.764;2022-10-22T04:54:20;19.67;;;11.95;;
26191;SDS011;13935;55.672;37.764;2022-10-22T04:55:42;20.90;;;12.98;;
26191;SDS011;13935;55.672;37.764;2022-10-22T04:56:46;19.13;;;13.15;;
26191;SDS011;13935;55.672;37.764;2022-10-22T04:57:55;22.13;;;12.32;;
26191;SDS011;13935;55.672;37.764;2022-10-22T04:59:12;18.08;;;11.43;;
26191;SDS011;13935;55.672;37.764;2022-10-22T05:00:21;22.13;;;12.80;;
26191;SDS011;13935;55.672;37.764;2022-10-22T05:01:39;20.13;;;11.68;;
26191;SDS011;13935;55.672;37.764;2022-10-22T05:03:02;22.52;;;12.23;;
26191;SDS011;13935;55.672;37.764;2022-10-22T05:04:14;19.55;;;12.07;;
26191;SDS011;13935;55.672;37.764;2022-10-22T05:05:21;20.02;;;12.70;;
26191;SDS011;13935;55.672;37.764;2022-10-22T05:06:24;21.77;;;12.90;;
26191;SDS011;13935;55.672;37.764;2022-10-22T05:07:33;27.08;;;14.45;;
26191;SDS011;13935;55.672;37.764;2022-10-22T05:08:41;20.33;;;13.18;;
26191;SDS011;13935;55.672;37.764;2022-10-22T05:09:49;23.25;;;14.25;;
26191;SDS011;13935;55.672;37.764;2022-10-22T05:11:29;20.02;;;12.63;;
26191;SDS011;13935;55.672;37.764;2022-10-22T05:12:55;21.00;;;13.05;;
26191;SDS011;13935;55.672;37.764;2022-10-22T05:14:05;20.58;;;12.80;;
26191;SDS011;13935;55.672;37.764;2022-10-22T05:15:25;21.42;;;12.65;;
26191;SDS011;13935;55.672;37.764;2022-10-22T05:18:04;28.35;;;16.10;;
26191;SDS011;13935;55.672;37.764;2022-10-22T05:19:13;25.10;;;15.00;;
26191;SDS011;13935;55.672;37.764;2022-10-22T05:20:20;21.42;;;13.63;;
26191;SDS011;13935;55.672;37.764;2022-10-22T05:21:29;23.20;;;13.95;;
26191;SDS011;13935;55.672;37.764;2022-10-22T05:23:01;26.45;;;13.75;;
26191;SDS011;13935;55.672;37.764;2022-10-22T05:24:27;22.92;;;14.73;;
26191;SDS011;13935;55.672;37.764;2022-10-22T05:25:39;23.15;;;13.95;;
26191;SDS011;13935;55.672;37.764;2022-10-22T05:26:48;29.30;;;14.10;;
26191;SDS011;13935;55.672;37.764;2022-10-22T05:28:06;23.35;;;13.63;;
26191;SDS011;13935;55.672;37.764;2022-10-22T05:29:36;22.85;;;14.23;;
26191;SDS011;13935;55.672;37.764;2022-10-22T05:31:01;20.13;;;12.90;;
26191;SDS011;13935;55.672;37.764;2022-10-22T05:32:20;23.10;;;13.10;;
26191;SDS011;13935;55.672;37.764;2022-10-22T05:33:32;21.48;;;13.77;;
26191;SDS011;13935;55.672;37.764;2022-10-22T05:34:42;25.75;;;13.60;;
26191;SDS011;13935;55.672;37.764;2022-10-22T05:35:53;27.23;;;16.80;;
26191;SDS011;13935;55.672;37.764;2022-10-22T05:37:01;28.58;;;16.55;;
26191;SDS011;13935;55.672;37.764;2022-10-22T05:38:18;25.20;;;15.50;;
26191;SDS011;13935;55.672;37.764;2022-10-22T05:39:35;24.00;;;13.45;;
26191;SDS011;13935;55.672;37.764;2022-10-22T05:41:03;22.27;;;12.68;;
26191;SDS011;13935;55.672;37.764;2022-10-22T05:42:13;22.42;;;12.63;;
26191;SDS011;13935;55.672;37.764;2022-10-22T05:43:18;21.77;;;11.80;;
26191;SDS011;13935;55.672;37.764;2022-10-22T05:44:26;19.55;;;12.27;;
26191;SDS011;13935;55.672;37.764;2022-10-22T05:45:35;19.15;;;11.95;;
26191;SDS011;13935;55.672;37.764;2022-10-22T05:47:03;18.58;;;11.93;;
26191;SDS011;13935;55.672;37.764;2022-10-22T05:48:18;19.15;;;12.30;;
26191;SDS011;13935;55.672;37.764;2022-10-22T05:49:32;19.40;;;11.88;;
26191;SDS011;13935;55.672;37.764;2022-10-22T05:50:39;19.70;;;11.88;;
26191;SDS011;13935;55.672;37.764;2022-10-22T05:51:42;18.77;;;12.38;;
26191;SDS011;13935;55.672;37.764;2022-10-22T05:53:05;19.90;;;12.38;;
26191;SDS011;13935;55.672;37.764;2022-10-22T05:54:17;20.77;;;12.35;;
26191;SDS011;13935;55.672;37.764;2022-10-22T05:55:23;16.08;;;11.05;;
26191;SDS011;13935;55.672;37.764;2022-10-22T05:56:31;18.92;;;11.82;;
26191;SDS011;13935;55.672;37.764;2022-10-22T05:57:37;17.05;;;11.40;;
26191;SDS011;13935;55.672;37.764;2022-10-22T05:58:49;19.90;;;11.63;;
26191;SDS011;13935;55.672;37.764;2022-10-22T06:00:00;19.02;;;12.13;;
26191;SDS011;13935;55.672;37.764;2022-10-22T06:01:19;17.90;;;12.07;;
26191;SDS011;13935;55.672;37.764;2022-10-22T06:02:57;19.52;;;11.75;;
26191;SDS011;13935;55.672;37.764;2022-10-22T06:04:06;18.10;;;12.20;;
26191;SDS011;13935;55.672;37.764;2022-10-22T06:05:22;19.58;;;11.98;;
26191;SDS011;13935;55.672;37.764;2022-10-22T06:06:44;21.43;;;12.23;;
26191;SDS011;13935;55.672;37.764;2022-10-22T06:07:53;20.55;;;11.68;;
26191;SDS011;13935;55.672;37.764;2022-10-22T06:09:13;19.17;;;12.02;;
26191;SDS011;13935;55.672;37.764;2022-10-22T06:11:07;18.23;;;10.88;;
26191;SDS011;13935;55.672;37.764;2022-10-22T06:12:21;20.58;;;11.57;;
26191;SDS011;13935;55.672;37.764;2022-10-22T06:13:32;18.42;;;11.25;;
26191;SDS011;13935;55.672;37.764;2022-10-22T06:14:41;19.77;;;11.85;;
26191;SDS011;13935;55.672;37.764;2022-10-22T06:16:06;24.25;;;12.77;;
26191;SDS011;13935;55.672;37.764;2022-10-22T06:17:19;17.83;;;11.77;;
26191;SDS011;13935;55.672;37.764;2022-10-22T06:18:35;18.52;;;11.30;;
26191;SDS011;13935;55.672;37.764;2022-10-22T06:20:00;21.27;;;12.02;;
26191;SDS011;13935;55.672;37.764;2022-10-22T06:21:13;16.65;;;11.27;;
26191;SDS011;13935;55.672;37.764;2022-10-22T06:22:41;20.58;;;12.20;;
26191;SDS011;13935;55.672;37.764;2022-10-22T06:23:51;18.15;;;11.35;;
26191;SDS011;13935;55.672;37.764;2022-10-22T06:25:00;17.30;;;11.60;;
26191;SDS011;13935;55.672;37.764;2022-10-22T06:26:02;17.15;;;11.75;;
26191;SDS011;13935;55.672;37.764;2022-10-22T06:27:08;20.30;;;12.63;;
26191;SDS011;13935;55.672;37.764;2022-10-22T06:28:14;18.75;;;12.27;;
26191;SDS011;13935;55.672;37.764;2022-10-22T06:29:27;18.50;;;11.90;;
26191;SDS011;13935;55.672;37.764;2022-10-22T06:30:36;17.75;;;11.95;;
26191;SDS011;13935;55.672;37.764;2022-10-22T06:31:52;18.13;;;12.50;;
26191;SDS011;13935;55.672;37.764;2022-10-22T06:33:08;22.10;;;13.48;;
26191;SDS011;13935;55.672;37.764;2022-10-22T06:34:13;22.40;;;13.25;;
26191;SDS011;13935;55.672;37.764;2022-10-22T06:35:54;18.88;;;12.02;;
26191;SDS011;13935;55.672;37.764;2022-10-22T06:36:57;20.40;;;12.48;;
26191;SDS011;13935;55.672;37.764;2022-10-22T06:38:02;21.08;;;12.52;;
26191;SDS011;13935;55.672;37.764;2022-10-22T06:39:04;18.60;;;11.98;;
26191;SDS011;13935;55.672;37.764;2022-10-22T06:40:07;20.75;;;12.23;;
26191;SDS011;13935;55.672;37.764;2022-10-22T06:41:19;19.50;;;11.82;;
26191;SDS011;13935;55.672;37.764;2022-10-22T06:42:27;20.27;;;12.60;;
26191;SDS011;13935;55.672;37.764;2022-10-22T06:43:32;20.75;;;12.25;;
26191;SDS011;13935;55.672;37.764;2022-10-22T06:44:38;20.95;;;11.82;;
26191;SDS011;13935;55.672;37.764;2022-10-22T06:47:28;20.33;;;12.10;;
26191;SDS011;13935;55.672;37.764;2022-10-22T06:50:23;21.58;;;12.07;;
26191;SDS011;13935;55.672;37.764;2022-10-22T06:51:27;19.92;;;12.38;;
26191;SDS011;13935;55.672;37.764;2022-10-22T06:52:32;19.10;;;12.00;;
26191;SDS011;13935;55.672;37.764;2022-10-22T06:53:37;17.30;;;11.35;;
26191;SDS011;13935;55.672;37.764;2022-10-22T06:54:40;19.48;;;11.65;;
26191;SDS011;13935;55.672;37.764;2022-10-22T06:55:43;21.25;;;12.85;;
26191;SDS011;13935;55.672;37.764;2022-10-22T06:56:45;25.20;;;13.32;;
26191;SDS011;13935;55.672;37.764;2022-10-22T06:57:47;22.67;;;12.60;;
26191;SDS011;13935;55.672;37.764;2022-10-22T06:58:51;19.80;;;12.25;;
26191;SDS011;13935;55.672;37.764;2022-10-22T06:59:55;21.40;;;11.85;;
26191;SDS011;13935;55.672;37.764;2022-10-22T07:01:11;20.98;;;12.15;;
26191;SDS011;13935;55.672;37.764;2022-10-22T07:02:14;18.98;;;11.95;;
26191;SDS011;13935;55.672;37.764;2022-10-22T07:03:17;20.73;;;12.25;;
26191;SDS011;13935;55.672;37.764;2022-10-22T07:04:19;20.92;;;12.00;;
26191;SDS011;13935;55.672;37.764;2022-10-22T07:05:22;20.13;;;12.50;;
26191;SDS011;13935;55.672;37.764;2022-10-22T07:06:29;21.25;;;12.27;;
26191;SDS011;13935;55.672;37.764;2022-10-22T07:07:32;18.85;;;11.68;;
26191;SDS011;13935;55.672;37.764;2022-10-22T07:08:34;19.23;;;12.48;;
26191;SDS011;13935;55.672;37.764;2022-10-22T07:09:47;20.48;;;11.75;;
26191;SDS011;13935;55.672;37.764;2022-10-22T07:10:51;18.60;;;12.27;;
26191;SDS011;13935;55.672;37.764;2022-10-22T07:12:05;20.30;;;12.05;;
26191;SDS011;13935;55.672;37.764;2022-10-22T07:13:11;21.90;;;13.07;;
26191;SDS011;13935;55.672;37.764;2022-10-22T07:14:13;23.20;;;12.50;;
26191;SDS011;13935;55.672;37.764;2022-10-22T07:15:16;19.33;;;12.13;;
26191;SDS011;13935;55.672;37.764;2022-10-22T07:16:18;18.40;;;11.90;;
26191;SDS011;13935;55.672;37.764;2022-10-22T07:17:22;18.40;;;12.40;;
26191;SDS011;13935;55.672;37.764;2022-10-22T07:18:25;24.13;;;12.45;;
26191;SDS011;13935;55.672;37.764;2022-10-22T07:19:34;24.02;;;13.25;;
26191;SDS011;13935;55.672;37.764;2022-10-22T07:20:39;18.77;;;11.57;;
26191;SDS011;13935;55.672;37.764;2022-10-22T07:21:44;20.40;;;11.93;;
26191;SDS011;13935;55.672;37.764;2022-10-22T07:22:46;19.25;;;11.35;;
26191;SDS011;13935;55.672;37.764;2022-10-22T07:23:52;19.83;;;11.00;;
26191;SDS011;13935;55.672;37.764;2022-10-22T07:24:56;21.25;;;10.85;;
26191;SDS011;13935;55.672;37.764;2022-10-22T07:26:05;20.95;;;11.13;;
26191;SDS011;13935;55.672;37.764;2022-10-22T07:27:10;22.23;;;10.73;;
26191;SDS011;13935;55.672;37.764;2022-10-22T07:28:20;17.67;;;10.85;;
26191;SDS011;13935;55.672;37.764;2022-10-22T07:29:25;15.90;;;9.80;;
26191;SDS011;13935;55.672;37.764;2022-10-22T07:30:28;19.45;;;11.77;;
26191;SDS011;13935;55.672;37.764;2022-10-22T07:31:36;16.55;;;10.63;;
26191;SDS011;13935;55.672;37.764;2022-10-22T07:34:01;16.15;;;10.43;;
26191;SDS011;13935;55.672;37.764;2022-10-22T07:35:04;22.20;;;10.77;;
26191;SDS011;13935;55.672;37.764;2022-10-22T07:36:09;19.38;;;10.55;;
26191;SDS011;13935;55.672;37.764;2022-10-22T07:37:18;15.00;;;9.77;;
26191;SDS011;13935;55.672;37.764;2022-10-22T07:38:28;16.83;;;9.70;;
26191;SDS011;13935;55.672;37.764;2022-10-22T07:39:35;22.10;;;10.13;;
26191;SDS011;13935;55.672;37.764;2022-10-22T07:40:38;20.35;;;11.25;;
26191;SDS011;13935;55.672;37.764;2022-10-22T07:41:42;16.30;;;9.38;;
26191;SDS011;13935;55.672;37.764;2022-10-22T07:42:45;19.15;;;9.75;;
26191;SDS011;13935;55.672;37.764;2022-10-22T07:43:57;16.33;;;9.98;;
26191;SDS011;13935;55.672;37.764;2022-10-22T07:45:03;16.00;;;9.65;;
26191;SDS011;13935;55.672;37.764;2022-10-22T07:46:12;20.35;;;9.85;;